createdAt,value
2018-07-05T00:01:52.972Z,18.50
2018-07-05T00:04:32.694Z,18.40
2018-07-05T00:07:12.429Z,18.50
2018-07-05T00:09:52.070Z,18.70
2018-07-05T00:12:31.765Z,18.70
2018-07-05T00:15:11.426Z,18.70
2018-07-05T00:17:51.005Z,18.60
2018-07-05T00:20:30.986Z,18.70
2018-07-05T00:23:10.791Z,18.80
2018-07-05T00:25:50.778Z,18.80
2018-07-05T00:28:30.372Z,18.40
2018-07-05T00:31:10.008Z,18.40
2018-07-05T00:33:49.659Z,18.60
2018-07-05T00:36:29.274Z,18.40
2018-07-05T00:39:08.867Z,18.10
2018-07-05T00:41:48.681Z,18.10
2018-07-05T00:44:28.330Z,18.10
2018-07-05T00:47:07.870Z,17.90
2018-07-05T00:49:47.611Z,18.10
2018-07-05T00:52:27.455Z,18.10
2018-07-05T00:55:07.259Z,18.00
2018-07-05T00:57:47.379Z,18.00
2018-07-05T01:00:27.083Z,17.80
2018-07-05T01:03:07.271Z,17.80
2018-07-05T01:05:47.202Z,17.60
2018-07-05T01:08:26.857Z,17.50
2018-07-05T01:11:06.535Z,17.40
2018-07-05T01:13:46.254Z,17.50
2018-07-05T01:16:25.978Z,17.80
2018-07-05T01:19:05.793Z,18.00
2018-07-05T01:21:45.554Z,17.80
2018-07-05T01:24:25.222Z,17.60
2018-07-05T01:27:04.942Z,17.60
2018-07-05T01:29:44.735Z,17.80
2018-07-05T01:32:24.455Z,17.70
2018-07-05T01:35:04.144Z,17.40
2018-07-05T01:37:43.883Z,17.20
2018-07-05T01:42:57.225Z,17.40
2018-07-05T01:45:36.982Z,17.50
2018-07-05T01:48:16.603Z,17.50
2018-07-05T01:50:56.265Z,17.50
2018-07-05T01:53:35.959Z,17.40
2018-07-05T01:56:15.689Z,17.20
2018-07-05T01:58:55.422Z,16.90
2018-07-05T02:01:35.128Z,16.90
2018-07-05T02:04:14.943Z,17.10
2018-07-05T02:06:54.619Z,17.20
2018-07-05T02:09:34.428Z,17.00
2018-07-05T02:12:13.995Z,16.70
2018-07-05T02:14:53.763Z,16.70
2018-07-05T02:17:33.536Z,16.60
2018-07-05T02:20:13.141Z,16.60
2018-07-05T02:22:53.243Z,16.80
2018-07-05T02:25:33.218Z,16.90
2018-07-05T02:28:13.194Z,16.80
2018-07-05T02:30:53.071Z,16.80
2018-07-05T02:33:32.640Z,16.90
2018-07-05T02:36:12.623Z,17.00
2018-07-05T02:38:57.533Z,17.10
2018-07-05T02:41:37.307Z,17.10
2018-07-05T02:44:16.842Z,17.10
2018-07-05T02:46:56.582Z,17.00
2018-07-05T02:49:36.140Z,17.10
2018-07-05T02:52:15.773Z,17.00
2018-07-05T02:54:55.516Z,16.90
2018-07-05T02:57:35.484Z,16.80
2018-07-05T03:00:15.243Z,16.90
2018-07-05T03:02:54.934Z,17.10
2018-07-05T03:05:34.708Z,17.10
2018-07-05T03:08:14.386Z,16.90
2018-07-05T03:10:54.106Z,16.90
2018-07-05T03:13:33.849Z,17.10
2018-07-05T03:16:13.583Z,16.80
2018-07-05T03:18:53.287Z,16.50
2018-07-05T03:21:32.826Z,16.40
2018-07-05T03:24:12.556Z,16.70
2018-07-05T03:26:52.605Z,16.60
2018-07-05T03:29:32.284Z,16.60
2018-07-05T03:32:11.898Z,16.60
2018-07-05T03:34:51.515Z,16.60
2018-07-05T03:37:31.414Z,16.70
2018-07-05T03:40:11.526Z,16.60
2018-07-05T03:42:51.654Z,16.70
2018-07-05T03:45:31.670Z,16.40
2018-07-05T03:48:11.685Z,16.40
2018-07-05T03:50:51.582Z,16.50
2018-07-05T03:53:31.675Z,16.50
2018-07-05T03:56:11.318Z,16.30
2018-07-05T03:58:51.156Z,16.30
2018-07-05T04:01:31.108Z,16.30
2018-07-05T04:04:10.850Z,16.50
2018-07-05T04:06:50.898Z,16.50
2018-07-05T04:09:30.929Z,16.30
2018-07-05T04:12:10.673Z,16.10
2018-07-05T04:14:50.306Z,16.20
2018-07-05T04:17:30.008Z,16.50
2018-07-05T04:20:09.699Z,16.80
2018-07-05T04:22:49.479Z,16.80
2018-07-05T04:25:29.751Z,17.00
2018-07-05T04:28:10.322Z,17.20
2018-07-05T04:30:50.046Z,17.00
2018-07-05T04:33:30.203Z,17.10
2018-07-05T04:36:10.689Z,17.40
2018-07-05T04:38:50.726Z,17.50
2018-07-05T04:41:30.968Z,17.50
2018-07-05T04:44:10.929Z,17.40
2018-07-05T04:46:50.638Z,17.40
2018-07-05T04:49:30.471Z,17.60
2018-07-05T04:52:10.306Z,17.70
2018-07-05T04:54:50.191Z,17.70
2018-07-05T04:57:30.079Z,17.60
2018-07-05T05:00:09.603Z,17.90
2018-07-05T05:02:49.417Z,18.20
2018-07-05T05:05:29.034Z,18.20
2018-07-05T05:08:09.008Z,17.90
2018-07-05T05:10:48.836Z,18.10
2018-07-05T05:13:28.396Z,18.00
2018-07-05T05:16:07.996Z,18.30
2018-07-05T05:18:47.649Z,18.40
2018-07-05T05:21:27.231Z,18.60
2018-07-05T05:24:07.106Z,18.80
2018-07-05T05:26:46.745Z,18.90
2018-07-05T05:29:26.511Z,19.00
2018-07-05T05:32:06.486Z,19.10
2018-07-05T05:34:46.634Z,19.30
2018-07-05T05:37:26.371Z,19.20
2018-07-05T05:40:06.212Z,19.20
2018-07-05T05:42:46.051Z,19.20
2018-07-05T05:45:25.917Z,19.30
2018-07-05T05:48:05.657Z,19.40
2018-07-05T05:50:45.299Z,19.50
2018-07-05T05:53:25.343Z,19.50
2018-07-05T05:56:05.107Z,19.60
2018-07-05T05:58:44.807Z,19.80
2018-07-05T06:01:24.600Z,20.00
2018-07-05T06:04:04.410Z,20.10
2018-07-05T06:06:44.151Z,20.10
2018-07-05T06:09:24.280Z,20.20
2018-07-05T06:12:04.028Z,20.30
2018-07-05T06:14:43.810Z,20.30
2018-07-05T06:17:23.503Z,20.60
2018-07-05T06:20:03.259Z,20.80
2018-07-05T06:22:43.172Z,20.90
2018-07-05T06:25:23.042Z,20.90
2018-07-05T06:28:02.767Z,21.10
2018-07-05T06:30:42.480Z,21.40
2018-07-05T06:33:22.563Z,21.60
2018-07-05T06:36:02.731Z,21.90
2018-07-05T06:38:42.812Z,22.10
2018-07-05T06:41:22.661Z,22.10
2018-07-05T06:44:02.606Z,22.10
2018-07-05T06:46:42.649Z,22.30
2018-07-05T06:49:22.604Z,22.60
2018-07-05T06:52:02.237Z,22.70
2018-07-05T06:54:42.032Z,22.80
2018-07-05T06:57:21.690Z,23.10
2018-07-05T07:00:01.427Z,23.20
2018-07-05T07:02:41.193Z,23.30
2018-07-05T07:05:20.821Z,23.20
2018-07-05T07:08:00.543Z,23.20
2018-07-05T07:10:40.211Z,23.30
2018-07-05T07:13:19.990Z,23.40
2018-07-05T07:15:59.818Z,23.40
2018-07-05T07:18:39.692Z,23.20
2018-07-05T07:21:19.475Z,23.60
2018-07-05T07:23:59.473Z,23.90
2018-07-05T07:26:39.292Z,24.30
2018-07-05T07:29:19.051Z,24.40
2018-07-05T07:31:59.169Z,24.70
2018-07-05T07:34:38.719Z,24.80
2018-07-05T07:37:18.299Z,25.00
2018-07-05T07:39:58.359Z,25.00
2018-07-05T07:42:25.707Z,25.10
2018-07-05T07:44:53.037Z,25.20
2018-07-05T07:47:20.386Z,25.30
2018-07-05T07:49:47.712Z,25.20
2018-07-05T07:52:15.061Z,25.10
2018-07-05T07:54:42.402Z,24.90
2018-07-05T07:57:09.769Z,25.10
2018-07-05T07:59:37.100Z,25.20
2018-07-05T08:02:04.458Z,25.10
2018-07-05T08:04:31.778Z,25.20
2018-07-05T08:06:59.131Z,25.20
2018-07-05T08:09:26.716Z,25.30
2018-07-05T08:11:54.305Z,25.50
2018-07-05T08:14:21.656Z,25.80
2018-07-05T08:16:49.215Z,25.90
2018-07-05T08:19:16.839Z,26.00
2018-07-05T08:21:44.159Z,26.10
2018-07-05T08:24:11.617Z,26.20
2018-07-05T08:26:38.947Z,26.20
2018-07-05T08:29:06.651Z,26.20
2018-07-05T08:31:33.995Z,26.20
2018-07-05T08:34:01.351Z,26.30
2018-07-05T08:36:29.033Z,26.40
2018-07-05T08:38:56.387Z,26.50
2018-07-05T08:41:24.008Z,26.80
2018-07-05T08:43:51.758Z,27.00
2018-07-05T08:46:19.323Z,27.30
2018-07-05T08:48:46.672Z,27.70
2018-07-05T08:51:14.068Z,27.90
2018-07-05T08:53:41.711Z,28.00
2018-07-05T08:56:09.047Z,27.90
2018-07-05T08:58:36.367Z,27.90
2018-07-05T09:01:03.725Z,28.10
2018-07-05T09:03:31.424Z,28.20
2018-07-05T09:05:58.794Z,28.30
2018-07-05T09:08:26.127Z,28.20
2018-07-05T09:10:53.474Z,28.20
2018-07-05T09:13:20.808Z,28.20
2018-07-05T09:15:48.176Z,28.30
2018-07-05T09:18:15.954Z,28.50
2018-07-05T09:20:43.248Z,28.50
2018-07-05T09:23:10.647Z,28.50
2018-07-05T09:25:37.973Z,28.50
2018-07-05T09:28:05.297Z,28.60
2018-07-05T09:30:32.656Z,28.90
2018-07-05T09:32:59.980Z,29.20
2018-07-05T09:35:27.416Z,29.30
2018-07-05T09:40:22.650Z,29.50
2018-07-05T09:42:50.002Z,29.60
2018-07-05T09:45:17.369Z,29.60
2018-07-05T09:47:44.687Z,29.50
2018-07-05T09:52:45.977Z,29.30
2018-07-05T09:55:13.319Z,29.20
2018-07-05T09:57:40.654Z,28.10
2018-07-05T10:00:10.983Z,28.60
2018-07-05T10:02:38.966Z,28.90
2018-07-05T10:05:06.571Z,29.10
2018-07-05T10:07:34.474Z,29.00
2018-07-05T10:10:02.226Z,29.50
2018-07-05T10:12:30.092Z,29.60
2018-07-05T10:14:57.425Z,29.80
2018-07-05T10:17:24.772Z,30.00
2018-07-05T10:19:52.099Z,30.00
2018-07-05T10:22:19.503Z,30.20
2018-07-05T10:24:46.834Z,30.30
2018-07-05T10:27:14.205Z,30.20
2018-07-05T10:29:53.952Z,30.40
2018-07-05T10:32:34.114Z,30.40
2018-07-05T10:35:01.444Z,30.50
2018-07-05T10:37:28.822Z,30.40
2018-07-05T10:40:08.559Z,30.50
2018-07-05T10:42:48.465Z,30.40
2018-07-05T10:45:28.156Z,30.30
2018-07-05T10:48:07.960Z,30.20
2018-07-05T10:50:47.627Z,30.10
2018-07-05T10:53:27.382Z,30.00
2018-07-05T10:56:07.099Z,30.00
2018-07-05T10:58:46.953Z,29.90
2018-07-05T11:01:26.783Z,29.80
2018-07-05T11:04:06.880Z,29.70
2018-07-05T11:06:46.669Z,29.70
2018-07-05T11:09:26.322Z,29.60
2018-07-05T11:12:06.063Z,29.70
2018-07-05T11:14:45.856Z,29.60
2018-07-05T11:17:25.548Z,29.50
2018-07-05T11:20:05.294Z,29.40
2018-07-05T11:22:45.140Z,29.30
2018-07-05T11:25:24.859Z,29.00
2018-07-05T11:28:04.642Z,28.60
2018-07-05T11:30:44.351Z,28.50
2018-07-05T11:33:24.221Z,28.30
2018-07-05T11:36:04.000Z,28.30
2018-07-05T11:38:43.611Z,28.40
2018-07-05T11:41:23.334Z,28.20
2018-07-05T11:44:03.095Z,28.10
2018-07-05T11:46:42.960Z,28.20
2018-07-05T11:49:22.970Z,28.10
2018-07-05T11:52:03.198Z,28.20
2018-07-05T11:54:43.959Z,28.20
2018-07-05T11:57:23.740Z,28.40
2018-07-05T12:00:03.573Z,28.50
2018-07-05T12:02:43.605Z,28.60
2018-07-05T12:05:23.407Z,28.40
2018-07-05T12:08:03.349Z,28.40
2018-07-05T12:10:43.247Z,28.30
2018-07-05T12:13:22.967Z,28.30
2018-07-05T12:16:02.727Z,28.20
2018-07-05T12:18:42.429Z,28.20
2018-07-05T12:21:22.052Z,28.00
2018-07-05T12:24:02.227Z,28.00
2018-07-05T12:26:41.964Z,28.10
2018-07-05T12:29:22.634Z,28.20
2018-07-05T12:32:02.564Z,28.20
2018-07-05T12:34:42.216Z,28.30
2018-07-05T12:37:22.648Z,28.20
2018-07-05T12:40:02.424Z,28.20
2018-07-05T12:42:42.210Z,28.40
2018-07-05T12:45:21.985Z,28.50
2018-07-05T12:48:02.335Z,28.60
2018-07-05T12:50:42.352Z,28.70
2018-07-05T12:53:22.047Z,28.70
2018-07-05T12:56:03.325Z,28.70
2018-07-05T12:58:42.951Z,28.60
2018-07-05T13:01:22.986Z,28.60
2018-07-05T13:04:02.694Z,28.50
2018-07-05T13:06:42.775Z,28.30
2018-07-05T13:09:22.659Z,28.30
2018-07-05T13:12:02.459Z,28.40
2018-07-05T13:14:42.301Z,28.70
2018-07-05T13:17:22.109Z,28.60
2018-07-05T13:20:02.144Z,28.80
2018-07-05T13:22:42.010Z,28.90
2018-07-05T13:25:21.806Z,28.80
2018-07-05T13:28:01.708Z,28.70
2018-07-05T13:30:41.479Z,28.60
2018-07-05T13:33:21.336Z,28.50
2018-07-05T13:36:01.059Z,28.50
2018-07-05T13:38:40.689Z,28.50
2018-07-05T13:41:21.267Z,28.50
2018-07-05T13:44:01.223Z,28.30
2018-07-05T13:46:40.993Z,28.20
2018-07-05T13:49:20.744Z,28.10
2018-07-05T13:52:00.515Z,28.00
2018-07-05T13:54:40.735Z,27.90
2018-07-05T13:57:20.758Z,27.80
2018-07-05T14:00:00.590Z,27.80
2018-07-05T14:02:40.458Z,27.60
2018-07-05T14:05:20.204Z,27.70
2018-07-05T14:08:00.288Z,27.50
2018-07-05T14:10:39.982Z,27.00
2018-07-05T14:13:19.649Z,26.90
2018-07-05T14:15:59.439Z,26.80
2018-07-05T14:18:39.135Z,26.50
2018-07-05T14:21:18.959Z,25.90
2018-07-05T14:23:58.614Z,25.70
2018-07-05T14:26:38.264Z,25.50
2018-07-05T14:29:18.406Z,25.70
2018-07-05T14:31:58.131Z,25.70
2018-07-05T14:34:38.114Z,25.70
2018-07-05T14:37:17.916Z,25.50
2018-07-05T14:39:57.997Z,25.10
2018-07-05T14:42:38.100Z,25.10
2018-07-05T14:45:18.312Z,25.00
2018-07-05T14:47:58.037Z,25.20
2018-07-05T14:50:37.939Z,25.30
2018-07-05T14:53:17.637Z,25.00
2018-07-05T14:55:58.298Z,25.00
2018-07-05T14:58:38.067Z,25.00
2018-07-05T15:01:17.891Z,25.50
2018-07-05T15:03:57.525Z,25.60
2018-07-05T15:06:37.191Z,25.70
2018-07-05T15:09:16.824Z,25.70
2018-07-05T15:11:56.479Z,25.80
2018-07-05T15:14:36.271Z,25.70
2018-07-05T15:17:16.098Z,26.10
2018-07-05T15:19:55.772Z,26.70
2018-07-05T15:22:35.780Z,26.80
2018-07-05T15:25:15.562Z,27.00
2018-07-05T15:27:55.563Z,26.80
2018-07-05T15:30:35.599Z,27.50
2018-07-05T15:33:15.421Z,27.80
2018-07-05T15:35:55.114Z,28.40
2018-07-05T15:38:34.865Z,28.90
2018-07-05T15:41:14.629Z,28.80
2018-07-05T15:43:54.306Z,28.90
2018-07-05T15:46:34.236Z,29.30
2018-07-05T15:49:13.842Z,29.70
2018-07-05T15:51:53.779Z,29.50
2018-07-05T15:54:33.557Z,29.60
2018-07-05T15:57:13.611Z,29.70
2018-07-05T15:59:53.335Z,29.30
2018-07-05T16:02:33.191Z,29.50
2018-07-05T16:05:12.800Z,29.10
2018-07-05T16:07:52.675Z,28.60
2018-07-05T16:10:32.626Z,28.30
2018-07-05T16:13:12.240Z,27.70
2018-07-05T16:15:51.967Z,27.80
2018-07-05T16:18:31.638Z,27.90
2018-07-05T16:21:11.501Z,27.70
2018-07-05T16:23:51.225Z,27.60
2018-07-05T16:26:30.996Z,27.90
2018-07-05T16:29:10.899Z,27.60
2018-07-05T16:31:50.863Z,27.40
2018-07-05T16:34:31.340Z,26.80
2018-07-05T16:37:11.108Z,27.00
2018-07-05T16:39:50.787Z,26.20
2018-07-05T16:42:30.615Z,25.60
2018-07-05T16:45:10.314Z,25.60
2018-07-05T16:47:50.094Z,25.30
2018-07-05T16:50:29.887Z,25.30
2018-07-05T16:53:09.757Z,25.40
2018-07-05T16:55:49.566Z,25.40
2018-07-05T16:58:29.335Z,25.30
2018-07-05T17:01:09.014Z,25.10
2018-07-05T17:03:48.802Z,25.20
2018-07-05T17:06:28.413Z,25.10
2018-07-05T17:09:08.404Z,25.00
2018-07-05T17:11:48.211Z,24.60
2018-07-05T17:14:27.975Z,24.80
2018-07-05T17:17:07.685Z,24.70
2018-07-05T17:19:47.636Z,24.60
2018-07-05T17:22:27.318Z,24.70
2018-07-05T17:25:07.174Z,24.90
2018-07-05T17:27:46.881Z,25.20
2018-07-05T17:30:26.523Z,25.20
2018-07-05T17:33:06.261Z,25.00
2018-07-05T17:35:45.834Z,25.10
2018-07-05T17:38:25.387Z,25.10
2018-07-05T17:41:05.307Z,25.20
2018-07-05T17:43:45.044Z,24.90
2018-07-05T17:46:25.132Z,25.00
2018-07-05T17:49:04.815Z,25.10
2018-07-05T17:51:44.404Z,25.30
2018-07-05T17:54:24.124Z,25.20
2018-07-05T17:57:03.840Z,25.10
2018-07-05T17:59:43.598Z,25.20
2018-07-05T18:02:23.256Z,24.90
2018-07-05T18:05:02.861Z,24.80
2018-07-05T18:07:42.581Z,24.30
2018-07-05T18:10:22.672Z,24.10
2018-07-05T18:13:02.572Z,24.20
2018-07-05T18:15:42.501Z,24.40
2018-07-05T18:18:22.291Z,24.50
2018-07-05T18:21:02.256Z,24.40
2018-07-05T18:23:41.890Z,24.30
2018-07-05T18:26:21.538Z,24.30
2018-07-05T18:29:01.246Z,24.30
2018-07-05T18:31:41.502Z,24.20
2018-07-05T18:34:21.351Z,24.20
2018-07-05T18:37:02.043Z,24.10
2018-07-05T18:39:42.059Z,23.90
2018-07-05T18:42:21.899Z,23.90
2018-07-05T18:45:02.295Z,24.00
2018-07-05T18:47:42.348Z,24.00
2018-07-05T18:50:22.235Z,24.00
2018-07-05T18:53:02.175Z,23.70
2018-07-05T18:55:41.909Z,23.90
2018-07-05T18:58:21.701Z,23.70
2018-07-05T19:01:01.477Z,23.40
2018-07-05T19:03:41.234Z,23.50
2018-07-05T19:06:20.936Z,23.50
2018-07-05T19:09:00.935Z,23.40
2018-07-05T19:11:40.935Z,23.40
2018-07-05T19:14:20.787Z,23.30
2018-07-05T19:17:00.912Z,23.30
2018-07-05T19:19:40.647Z,23.30
2018-07-05T19:22:20.347Z,23.30
2018-07-05T19:25:00.122Z,23.20
2018-07-05T19:27:39.763Z,23.00
2018-07-05T19:30:19.431Z,23.00
2018-07-05T19:32:59.228Z,22.90
2018-07-05T19:35:39.014Z,22.80
2018-07-05T19:38:18.720Z,22.60
2018-07-05T19:40:58.524Z,22.50
2018-07-05T19:43:38.883Z,22.50
2018-07-05T19:46:18.995Z,22.60
2018-07-05T19:48:58.693Z,22.50
2018-07-05T19:51:38.418Z,22.30
2018-07-05T19:54:18.125Z,22.20
2018-07-05T19:56:58.057Z,22.20
2018-07-05T19:59:37.847Z,22.20
2018-07-05T20:02:17.981Z,22.20
2018-07-05T20:04:57.915Z,22.20
2018-07-05T20:07:37.832Z,22.20
2018-07-05T20:10:17.994Z,22.20
2018-07-05T20:12:57.682Z,22.30
2018-07-05T20:15:37.651Z,22.30
2018-07-05T20:18:17.391Z,22.20
2018-07-05T20:20:57.371Z,21.90
2018-07-05T20:23:37.275Z,21.80
2018-07-05T20:26:17.257Z,21.80
2018-07-05T20:28:56.939Z,21.80
2018-07-05T20:31:41.217Z,21.90
2018-07-05T20:34:21.080Z,22.10
2018-07-05T20:37:01.185Z,22.10
2018-07-05T20:39:40.918Z,22.30
2018-07-05T20:42:20.795Z,22.10
2018-07-05T20:45:00.377Z,22.20
2018-07-05T20:47:40.456Z,21.80
2018-07-05T20:50:20.462Z,21.80
2018-07-05T20:53:00.580Z,21.80
2018-07-05T20:55:40.786Z,21.90
2018-07-05T20:58:20.451Z,21.70
2018-07-05T21:01:00.100Z,21.80
2018-07-05T21:03:39.950Z,21.80
2018-07-05T21:06:19.777Z,21.70
2018-07-05T21:08:59.556Z,21.70
2018-07-05T21:11:39.284Z,21.80
2018-07-05T21:14:19.155Z,21.90
2018-07-05T21:16:59.063Z,21.80
2018-07-05T21:19:38.972Z,21.90
2018-07-05T21:22:18.600Z,21.90
2018-07-05T21:24:58.295Z,21.90
2018-07-05T21:27:38.030Z,22.00
2018-07-05T21:30:17.815Z,21.80
2018-07-05T21:32:57.586Z,21.70
2018-07-05T21:35:37.284Z,21.80
2018-07-05T21:38:16.974Z,21.70
2018-07-05T21:40:56.843Z,21.80
2018-07-05T21:43:36.467Z,21.90
2018-07-05T21:46:16.562Z,21.90
2018-07-05T21:48:56.470Z,21.90
2018-07-05T21:51:36.243Z,21.90
2018-07-05T21:54:15.976Z,21.70
2018-07-05T21:56:55.804Z,21.80
2018-07-05T21:59:35.466Z,21.80
2018-07-05T22:02:15.056Z,21.80
2018-07-05T22:04:54.914Z,21.80
2018-07-05T22:07:34.574Z,21.80
2018-07-05T22:10:14.446Z,21.30
2018-07-05T22:12:54.061Z,21.00
2018-07-05T22:15:34.023Z,21.00
2018-07-05T22:18:19.103Z,21.00
2018-07-05T22:21:05.025Z,21.20
2018-07-05T22:23:50.206Z,21.20
2018-07-05T22:26:32.355Z,21.30
2018-07-05T22:29:17.665Z,21.30
2018-07-05T22:31:58.789Z,21.40
2018-07-05T22:34:38.887Z,21.40
2018-07-05T22:37:19.081Z,21.40
2018-07-05T22:39:58.844Z,21.60
2018-07-05T22:42:38.638Z,21.60
2018-07-05T22:45:18.743Z,21.50
2018-07-05T22:47:58.570Z,21.60
2018-07-05T22:50:38.202Z,21.50
2018-07-05T22:53:17.919Z,21.30
2018-07-05T22:55:57.705Z,21.50
2018-07-05T22:58:37.455Z,21.60
2018-07-05T23:01:17.064Z,21.50
2018-07-05T23:03:57.659Z,21.60
2018-07-05T23:06:37.548Z,21.50
2018-07-05T23:09:17.655Z,21.50
2018-07-05T23:11:57.458Z,21.40
2018-07-05T23:14:37.384Z,21.60
2018-07-05T23:17:17.093Z,21.70
2018-07-05T23:19:56.807Z,21.60
2018-07-05T23:22:36.471Z,21.50
2018-07-05T23:25:16.103Z,21.60
2018-07-05T23:27:55.847Z,21.50
2018-07-05T23:30:35.900Z,21.60
2018-07-05T23:33:15.751Z,21.60
2018-07-05T23:35:55.441Z,21.50
2018-07-05T23:38:35.164Z,21.50
2018-07-05T23:41:15.120Z,21.70
2018-07-05T23:43:54.866Z,21.60
2018-07-05T23:46:34.499Z,21.60
2018-07-05T23:49:14.157Z,21.60
2018-07-05T23:51:53.886Z,21.60
2018-07-05T23:54:33.691Z,21.60
2018-07-05T23:57:13.383Z,21.80
2018-07-05T23:59:53.171Z,21.60
